Tropical Cyclones
[Index]
Main Index Home Page Stock Weather Photos Extreme Storms Discussion Storm News and Storm Chasing Reports Tropical Cyclones / Hurricanes / Typhoons Weather Data and Links Wild Fires / Bushfires Weather Observation Techniques Weather Picture Catalogue Tornado Pictures and Reports Stock Video Footage and DVDs for sale
Season 2002-2003 Tropical Cyclone GINA Track Map
Season 2002-2003 Summaries: [BoM-AU] [JTWC-AU] [JTWC-SIO] [JTWC-SPAC] [JTWC-SH]
<<- Previous TC | JTWC 2002-2003 Season | Next TC ->>

click for intensity scale information  Lat/long Grid: Show Hide

 Date Labels: Show Hide

Joint Typhoon Warning Centre Cyclone Data

Name: GINA

04 Jun 2003 00:00 UTC to 09 Jun 2003 00:00 UTC

    date/time    lat    long     hPa   cat  kts
2003-06-04 00   10.0   171.7    1002         25          
2003-06-04 06   10.1   171.1    1000         30          
2003-06-04 12   10.3   170.5    1000         30          
2003-06-04 18   10.6   169.9    1000         30          
2003-06-05 00   11.2   169.4    1000         30          
2003-06-05 06   11.7   168.8     991    1    45          
2003-06-05 12   12.3   168.3     984    2    55          
2003-06-05 18   13.0   167.7     984    2    55          
2003-06-06 00   13.6   166.9     984    2    55          
2003-06-06 06   14.4   166.1     984    2    55          
2003-06-06 12   15.1   165.1     980    2    60          
2003-06-06 18   15.3   164.0     976    2    65          
2003-06-07 00   15.7   163.1     967    3    75          
2003-06-07 06   16.3   162.6     958    3    85          
2003-06-07 12   16.8   162.1     954    3    90          
2003-06-07 18   17.3   161.8     954    3    90          
2003-06-08 00   17.6   161.9     954    3    90          
2003-06-08 06   17.7   162.3     967    3    75          
2003-06-08 12   18.0   163.1     976    2    65          
2003-06-08 18   17.6   163.7     984    2    55          
2003-06-09 00   17.0   163.2     991    1    45          
Winds are 1-min average.

Tropical cyclone tracks developed by Michael Bath using data from the Joint Typhoon Warning Centre Best Tracks and Google Maps.


[Australian Severe Weather index] [Copyright Notice] [Email Contacts] [Search This Site] [Privacy Policy]
Document: tropical_cyclone_gina.htm Updated: 28 June 2017